14G weather

Fremont Airport
Fremont, Ohio, United States

Public forecast

Using degrees Fahrenheit for public forecast. Weather courtesy of forecast.io.

Closest aviation weather report (METAR) to Fremont Airport

Closest report is Carl R Keller Field, 17.2 nm (31.8 km) NE. Retrieved 2020/07/16 01:15 UTC (5 minutes ago):

KPCW 160115Z AUTO 10006KT 10SM BKN065 25/21 A2997 RMK AO2

Closest aviation forecast (TAF) to Fremont Airport

Closest forecast is Findlay Airport, 29.9 nm (55.4 km) SW. Retrieved 2020-07-16 00:42 UTC (38 minutes ago):

TAF KFDY 152339Z 1600/1624 16008KT P6SM BKN250 FM160800 15006KT P6SM VCSH OVC035 FM161100 19012KT P6SM -SHRA VCTS OVC035CB FM161400 24012G20KT P6SM VCSH BKN025 FM162100 28010KT P6SM BKN035